sensor_id;sensor_type;location;lat;lon;timestamp;P1;durP1;ratioP1;P2;durP2;ratioP2
20478;SDS011;10398;52.490;13.434;2023-08-12T00:00:18;8.20;;;3.67;;
20478;SDS011;10398;52.490;13.434;2023-08-12T00:02:44;5.88;;;3.40;;
20478;SDS011;10398;52.490;13.434;2023-08-12T00:05:11;6.47;;;3.42;;
20478;SDS011;10398;52.490;13.434;2023-08-12T00:07:38;5.57;;;2.88;;
20478;SDS011;10398;52.490;13.434;2023-08-12T00:10:08;6.07;;;3.28;;
20478;SDS011;10398;52.490;13.434;2023-08-12T00:12:35;5.97;;;3.72;;
20478;SDS011;10398;52.490;13.434;2023-08-12T00:15:02;6.20;;;3.25;;
20478;SDS011;10398;52.490;13.434;2023-08-12T00:17:30;7.97;;;2.88;;
20478;SDS011;10398;52.490;13.434;2023-08-12T00:19:55;4.60;;;2.63;;
20478;SDS011;10398;52.490;13.434;2023-08-12T00:22:21;7.93;;;3.17;;
20478;SDS011;10398;52.490;13.434;2023-08-12T00:24:47;8.23;;;4.82;;
20478;SDS011;10398;52.490;13.434;2023-08-12T00:27:13;7.50;;;3.33;;
20478;SDS011;10398;52.490;13.434;2023-08-12T00:29:39;10.63;;;3.60;;
20478;SDS011;10398;52.490;13.434;2023-08-12T00:32:05;6.97;;;3.20;;
20478;SDS011;10398;52.490;13.434;2023-08-12T00:34:31;4.35;;;2.88;;
20478;SDS011;10398;52.490;13.434;2023-08-12T00:36:56;7.28;;;2.95;;
20478;SDS011;10398;52.490;13.434;2023-08-12T00:39:22;7.15;;;2.78;;
20478;SDS011;10398;52.490;13.434;2023-08-12T00:41:48;7.18;;;3.42;;
20478;SDS011;10398;52.490;13.434;2023-08-12T00:44:13;18.85;;;7.20;;
20478;SDS011;10398;52.490;13.434;2023-08-12T00:46:40;16.40;;;6.38;;
20478;SDS011;10398;52.490;13.434;2023-08-12T00:49:07;5.75;;;3.10;;
20478;SDS011;10398;52.490;13.434;2023-08-12T00:51:34;9.27;;;3.80;;
20478;SDS011;10398;52.490;13.434;2023-08-12T00:54:00;11.55;;;4.82;;
20478;SDS011;10398;52.490;13.434;2023-08-12T00:56:29;9.07;;;4.00;;
20478;SDS011;10398;52.490;13.434;2023-08-12T00:58:57;7.10;;;4.10;;
20478;SDS011;10398;52.490;13.434;2023-08-12T01:01:25;7.45;;;3.95;;
20478;SDS011;10398;52.490;13.434;2023-08-12T01:03:51;11.18;;;4.55;;
20478;SDS011;10398;52.490;13.434;2023-08-12T01:06:17;11.05;;;3.83;;
20478;SDS011;10398;52.490;13.434;2023-08-12T01:08:43;12.45;;;5.28;;
20478;SDS011;10398;52.490;13.434;2023-08-12T01:14:02;9.90;;;4.75;;
20478;SDS011;10398;52.490;13.434;2023-08-12T01:16:35;5.70;;;3.30;;
20478;SDS011;10398;52.490;13.434;2023-08-12T01:19:05;6.10;;;3.38;;
20478;SDS011;10398;52.490;13.434;2023-08-12T01:21:34;6.22;;;3.25;;
20478;SDS011;10398;52.490;13.434;2023-08-12T01:24:06;9.35;;;3.20;;
20478;SDS011;10398;52.490;13.434;2023-08-12T01:26:32;9.73;;;4.80;;
20478;SDS011;10398;52.490;13.434;2023-08-12T01:28:57;6.05;;;3.60;;
20478;SDS011;10398;52.490;13.434;2023-08-12T01:31:26;9.40;;;3.50;;
20478;SDS011;10398;52.490;13.434;2023-08-12T01:34:20;4.82;;;2.70;;
20478;SDS011;10398;52.490;13.434;2023-08-12T01:37:01;6.13;;;2.47;;
20478;SDS011;10398;52.490;13.434;2023-08-12T01:39:30;6.20;;;2.50;;
20478;SDS011;10398;52.490;13.434;2023-08-12T01:41:58;6.97;;;2.95;;
20478;SDS011;10398;52.490;13.434;2023-08-12T01:44:24;4.95;;;2.65;;
20478;SDS011;10398;52.490;13.434;2023-08-12T01:46:50;6.60;;;3.38;;
20478;SDS011;10398;52.490;13.434;2023-08-12T01:49:16;7.78;;;2.60;;
20478;SDS011;10398;52.490;13.434;2023-08-12T01:51:41;3.28;;;2.63;;
20478;SDS011;10398;52.490;13.434;2023-08-12T01:54:07;6.78;;;3.20;;
20478;SDS011;10398;52.490;13.434;2023-08-12T01:56:32;8.68;;;3.20;;
20478;SDS011;10398;52.490;13.434;2023-08-12T01:58:58;4.95;;;2.65;;
20478;SDS011;10398;52.490;13.434;2023-08-12T02:01:24;3.75;;;2.78;;
20478;SDS011;10398;52.490;13.434;2023-08-12T02:03:49;5.63;;;2.75;;
20478;SDS011;10398;52.490;13.434;2023-08-12T02:06:15;5.32;;;2.60;;
20478;SDS011;10398;52.490;13.434;2023-08-12T02:08:41;4.07;;;2.83;;
20478;SDS011;10398;52.490;13.434;2023-08-12T02:11:06;4.82;;;2.60;;
20478;SDS011;10398;52.490;13.434;2023-08-12T02:13:32;6.60;;;2.83;;
20478;SDS011;10398;52.490;13.434;2023-08-12T02:15:58;6.30;;;3.50;;
20478;SDS011;10398;52.490;13.434;2023-08-12T02:18:23;4.10;;;2.58;;
20478;SDS011;10398;52.490;13.434;2023-08-12T02:20:49;4.63;;;2.90;;
20478;SDS011;10398;52.490;13.434;2023-08-12T02:23:14;3.83;;;2.70;;
20478;SDS011;10398;52.490;13.434;2023-08-12T02:25:40;4.82;;;2.63;;
20478;SDS011;10398;52.490;13.434;2023-08-12T02:28:06;3.33;;;2.30;;
20478;SDS011;10398;52.490;13.434;2023-08-12T02:30:31;7.78;;;3.17;;
20478;SDS011;10398;52.490;13.434;2023-08-12T02:32:58;4.72;;;2.70;;
20478;SDS011;10398;52.490;13.434;2023-08-12T02:35:23;4.15;;;2.80;;
20478;SDS011;10398;52.490;13.434;2023-08-12T02:37:49;3.35;;;2.60;;
20478;SDS011;10398;52.490;13.434;2023-08-12T02:40:15;6.88;;;2.65;;
20478;SDS011;10398;52.490;13.434;2023-08-12T02:42:41;6.82;;;2.38;;
20478;SDS011;10398;52.490;13.434;2023-08-12T02:45:06;3.28;;;2.40;;
20478;SDS011;10398;52.490;13.434;2023-08-12T02:47:32;3.63;;;2.67;;
20478;SDS011;10398;52.490;13.434;2023-08-12T02:49:58;5.47;;;2.45;;
20478;SDS011;10398;52.490;13.434;2023-08-12T02:52:23;4.95;;;2.47;;
20478;SDS011;10398;52.490;13.434;2023-08-12T02:54:49;6.75;;;2.90;;
20478;SDS011;10398;52.490;13.434;2023-08-12T02:57:15;4.07;;;2.38;;
20478;SDS011;10398;52.490;13.434;2023-08-12T02:59:40;3.92;;;2.50;;
20478;SDS011;10398;52.490;13.434;2023-08-12T03:02:06;5.55;;;2.50;;
20478;SDS011;10398;52.490;13.434;2023-08-12T03:04:32;3.97;;;2.80;;
20478;SDS011;10398;52.490;13.434;2023-08-12T03:06:57;5.00;;;3.15;;
20478;SDS011;10398;52.490;13.434;2023-08-12T03:09:23;4.03;;;2.70;;
20478;SDS011;10398;52.490;13.434;2023-08-12T03:11:49;3.83;;;2.53;;
20478;SDS011;10398;52.490;13.434;2023-08-12T03:14:14;6.53;;;2.88;;
20478;SDS011;10398;52.490;13.434;2023-08-12T03:16:40;5.78;;;2.60;;
20478;SDS011;10398;52.490;13.434;2023-08-12T03:19:06;4.28;;;2.60;;
20478;SDS011;10398;52.490;13.434;2023-08-12T03:21:31;5.65;;;3.08;;
20478;SDS011;10398;52.490;13.434;2023-08-12T03:23:57;3.85;;;2.80;;
20478;SDS011;10398;52.490;13.434;2023-08-12T03:26:22;3.50;;;2.42;;
20478;SDS011;10398;52.490;13.434;2023-08-12T03:28:48;5.07;;;3.05;;
20478;SDS011;10398;52.490;13.434;2023-08-12T03:31:14;5.47;;;2.90;;
20478;SDS011;10398;52.490;13.434;2023-08-12T03:33:39;4.63;;;2.97;;
20478;SDS011;10398;52.490;13.434;2023-08-12T03:36:05;5.15;;;3.40;;
20478;SDS011;10398;52.490;13.434;2023-08-12T03:38:31;5.70;;;3.63;;
20478;SDS011;10398;52.490;13.434;2023-08-12T03:40:57;7.57;;;3.08;;
20478;SDS011;10398;52.490;13.434;2023-08-12T03:43:22;5.10;;;3.00;;
20478;SDS011;10398;52.490;13.434;2023-08-12T03:45:48;8.75;;;3.45;;
20478;SDS011;10398;52.490;13.434;2023-08-12T03:48:13;5.15;;;2.85;;
20478;SDS011;10398;52.490;13.434;2023-08-12T03:50:39;7.63;;;3.30;;
20478;SDS011;10398;52.490;13.434;2023-08-12T03:53:06;4.10;;;2.85;;
20478;SDS011;10398;52.490;13.434;2023-08-12T03:55:33;5.72;;;2.75;;
20478;SDS011;10398;52.490;13.434;2023-08-12T03:57:59;4.35;;;2.92;;
20478;SDS011;10398;52.490;13.434;2023-08-12T04:00:26;7.05;;;2.90;;
20478;SDS011;10398;52.490;13.434;2023-08-12T04:02:52;5.13;;;3.08;;
20478;SDS011;10398;52.490;13.434;2023-08-12T04:05:17;6.95;;;3.00;;
20478;SDS011;10398;52.490;13.434;2023-08-12T04:07:43;5.57;;;2.53;;
20478;SDS011;10398;52.490;13.434;2023-08-12T04:10:08;7.18;;;2.90;;
20478;SDS011;10398;52.490;13.434;2023-08-12T04:12:34;3.95;;;2.60;;
20478;SDS011;10398;52.490;13.434;2023-08-12T04:15:00;3.78;;;2.35;;
20478;SDS011;10398;52.490;13.434;2023-08-12T04:17:29;6.68;;;2.95;;
20478;SDS011;10398;52.490;13.434;2023-08-12T04:19:55;3.67;;;2.72;;
20478;SDS011;10398;52.490;13.434;2023-08-12T04:22:20;8.13;;;3.15;;
20478;SDS011;10398;52.490;13.434;2023-08-12T04:24:46;4.25;;;2.70;;
20478;SDS011;10398;52.490;13.434;2023-08-12T04:27:11;5.65;;;2.85;;
20478;SDS011;10398;52.490;13.434;2023-08-12T04:29:37;4.75;;;2.90;;
20478;SDS011;10398;52.490;13.434;2023-08-12T04:32:03;6.50;;;2.90;;
20478;SDS011;10398;52.490;13.434;2023-08-12T04:34:29;6.97;;;2.83;;
20478;SDS011;10398;52.490;13.434;2023-08-12T04:36:54;5.97;;;3.25;;
20478;SDS011;10398;52.490;13.434;2023-08-12T04:39:20;5.45;;;2.90;;
20478;SDS011;10398;52.490;13.434;2023-08-12T04:41:47;11.15;;;2.90;;
20478;SDS011;10398;52.490;13.434;2023-08-12T04:44:12;5.03;;;2.90;;
20478;SDS011;10398;52.490;13.434;2023-08-12T04:46:38;3.85;;;2.88;;
20478;SDS011;10398;52.490;13.434;2023-08-12T04:49:04;6.10;;;2.85;;
20478;SDS011;10398;52.490;13.434;2023-08-12T04:51:30;4.68;;;2.72;;
20478;SDS011;10398;52.490;13.434;2023-08-12T04:53:55;3.70;;;2.50;;
20478;SDS011;10398;52.490;13.434;2023-08-12T04:56:21;4.97;;;3.20;;
20478;SDS011;10398;52.490;13.434;2023-08-12T04:58:48;5.88;;;3.03;;
20478;SDS011;10398;52.490;13.434;2023-08-12T05:01:13;6.78;;;3.25;;
20478;SDS011;10398;52.490;13.434;2023-08-12T05:03:39;4.05;;;2.63;;
20478;SDS011;10398;52.490;13.434;2023-08-12T05:06:05;4.80;;;2.90;;
20478;SDS011;10398;52.490;13.434;2023-08-12T05:08:30;3.97;;;2.72;;
20478;SDS011;10398;52.490;13.434;2023-08-12T05:10:56;8.13;;;2.92;;
20478;SDS011;10398;52.490;13.434;2023-08-12T05:13:22;5.55;;;2.75;;
20478;SDS011;10398;52.490;13.434;2023-08-12T05:15:48;5.88;;;2.45;;
20478;SDS011;10398;52.490;13.434;2023-08-12T05:18:14;4.13;;;2.30;;
20478;SDS011;10398;52.490;13.434;2023-08-12T05:20:41;3.10;;;2.15;;
20478;SDS011;10398;52.490;13.434;2023-08-12T05:23:07;4.78;;;2.28;;
20478;SDS011;10398;52.490;13.434;2023-08-12T05:25:33;9.18;;;2.95;;
20478;SDS011;10398;52.490;13.434;2023-08-12T05:27:59;7.97;;;3.67;;
20478;SDS011;10398;52.490;13.434;2023-08-12T05:30:24;4.80;;;2.88;;
20478;SDS011;10398;52.490;13.434;2023-08-12T05:32:50;6.63;;;2.50;;
20478;SDS011;10398;52.490;13.434;2023-08-12T05:35:16;9.15;;;2.78;;
20478;SDS011;10398;52.490;13.434;2023-08-12T05:37:41;2.72;;;2.30;;
20478;SDS011;10398;52.490;13.434;2023-08-12T05:40:10;5.75;;;2.83;;
20478;SDS011;10398;52.490;13.434;2023-08-12T05:42:36;5.55;;;2.28;;
20478;SDS011;10398;52.490;13.434;2023-08-12T05:45:02;6.63;;;2.10;;
20478;SDS011;10398;52.490;13.434;2023-08-12T05:47:29;3.97;;;2.20;;
20478;SDS011;10398;52.490;13.434;2023-08-12T05:49:54;6.78;;;2.70;;
20478;SDS011;10398;52.490;13.434;2023-08-12T05:52:20;2.65;;;1.88;;
20478;SDS011;10398;52.490;13.434;2023-08-12T05:54:46;2.75;;;2.10;;
20478;SDS011;10398;52.490;13.434;2023-08-12T05:57:11;4.80;;;2.03;;
20478;SDS011;10398;52.490;13.434;2023-08-12T05:59:37;3.42;;;2.20;;
20478;SDS011;10398;52.490;13.434;2023-08-12T06:02:03;5.35;;;2.35;;
20478;SDS011;10398;52.490;13.434;2023-08-12T06:04:28;6.13;;;2.53;;
20478;SDS011;10398;52.490;13.434;2023-08-12T06:06:54;3.08;;;2.10;;
20478;SDS011;10398;52.490;13.434;2023-08-12T06:09:20;3.10;;;2.08;;
20478;SDS011;10398;52.490;13.434;2023-08-12T06:11:46;7.80;;;2.60;;
20478;SDS011;10398;52.490;13.434;2023-08-12T06:14:12;3.40;;;2.20;;
20478;SDS011;10398;52.490;13.434;2023-08-12T06:16:38;3.75;;;2.15;;
20478;SDS011;10398;52.490;13.434;2023-08-12T06:19:03;3.53;;;2.00;;
20478;SDS011;10398;52.490;13.434;2023-08-12T06:21:29;4.70;;;2.75;;
20478;SDS011;10398;52.490;13.434;2023-08-12T06:23:55;3.63;;;2.40;;
20478;SDS011;10398;52.490;13.434;2023-08-12T06:26:21;5.57;;;2.42;;
20478;SDS011;10398;52.490;13.434;2023-08-12T06:28:46;4.50;;;2.63;;
20478;SDS011;10398;52.490;13.434;2023-08-12T06:31:12;5.53;;;2.30;;
20478;SDS011;10398;52.490;13.434;2023-08-12T06:33:38;3.38;;;2.15;;
20478;SDS011;10398;52.490;13.434;2023-08-12T06:36:03;3.45;;;2.35;;
20478;SDS011;10398;52.490;13.434;2023-08-12T06:38:29;5.22;;;2.00;;
20478;SDS011;10398;52.490;13.434;2023-08-12T06:40:55;4.63;;;2.65;;
20478;SDS011;10398;52.490;13.434;2023-08-12T06:43:20;12.30;;;2.42;;
20478;SDS011;10398;52.490;13.434;2023-08-12T06:45:46;4.55;;;2.20;;
20478;SDS011;10398;52.490;13.434;2023-08-12T06:48:12;4.85;;;2.38;;
20478;SDS011;10398;52.490;13.434;2023-08-12T06:50:37;3.38;;;2.22;;
20478;SDS011;10398;52.490;13.434;2023-08-12T06:53:03;6.50;;;2.58;;
20478;SDS011;10398;52.490;13.434;2023-08-12T06:55:29;4.10;;;2.58;;
20478;SDS011;10398;52.490;13.434;2023-08-12T06:57:54;4.90;;;2.35;;
20478;SDS011;10398;52.490;13.434;2023-08-12T07:00:20;3.40;;;2.42;;
20478;SDS011;10398;52.490;13.434;2023-08-12T07:02:46;3.95;;;2.40;;
20478;SDS011;10398;52.490;13.434;2023-08-12T07:05:12;3.30;;;2.10;;
20478;SDS011;10398;52.490;13.434;2023-08-12T07:07:37;3.42;;;1.98;;
20478;SDS011;10398;52.490;13.434;2023-08-12T07:10:03;4.38;;;2.28;;
20478;SDS011;10398;52.490;13.434;2023-08-12T07:12:31;4.65;;;2.03;;
20478;SDS011;10398;52.490;13.434;2023-08-12T07:14:57;4.35;;;2.50;;
20478;SDS011;10398;52.490;13.434;2023-08-12T07:17:23;6.60;;;2.42;;
20478;SDS011;10398;52.490;13.434;2023-08-12T07:19:49;4.75;;;2.58;;
20478;SDS011;10398;52.490;13.434;2023-08-12T07:22:14;3.70;;;2.53;;
20478;SDS011;10398;52.490;13.434;2023-08-12T07:24:44;10.88;;;2.30;;
20478;SDS011;10398;52.490;13.434;2023-08-12T07:27:10;5.88;;;2.10;;
20478;SDS011;10398;52.490;13.434;2023-08-12T07:29:35;4.78;;;2.50;;
20478;SDS011;10398;52.490;13.434;2023-08-12T07:32:01;4.18;;;2.58;;
20478;SDS011;10398;52.490;13.434;2023-08-12T07:34:27;5.30;;;2.65;;
20478;SDS011;10398;52.490;13.434;2023-08-12T07:36:52;4.95;;;2.08;;
20478;SDS011;10398;52.490;13.434;2023-08-12T07:39:18;4.60;;;2.70;;
20478;SDS011;10398;52.490;13.434;2023-08-12T07:41:44;4.75;;;2.50;;
20478;SDS011;10398;52.490;13.434;2023-08-12T07:44:09;5.10;;;2.25;;
20478;SDS011;10398;52.490;13.434;2023-08-12T07:46:35;3.60;;;1.98;;
20478;SDS011;10398;52.490;13.434;2023-08-12T07:49:01;5.10;;;2.58;;
20478;SDS011;10398;52.490;13.434;2023-08-12T07:51:26;6.57;;;3.05;;
20478;SDS011;10398;52.490;13.434;2023-08-12T07:53:52;6.28;;;2.22;;
20478;SDS011;10398;52.490;13.434;2023-08-12T07:56:17;5.00;;;2.60;;
20478;SDS011;10398;52.490;13.434;2023-08-12T07:58:43;5.70;;;2.20;;
20478;SDS011;10398;52.490;13.434;2023-08-12T08:01:10;4.03;;;2.53;;
20478;SDS011;10398;52.490;13.434;2023-08-12T08:03:36;8.10;;;3.30;;
20478;SDS011;10398;52.490;13.434;2023-08-12T08:06:02;6.03;;;2.53;;
20478;SDS011;10398;52.490;13.434;2023-08-12T08:08:27;4.32;;;2.30;;
20478;SDS011;10398;52.490;13.434;2023-08-12T08:10:53;3.15;;;2.17;;
20478;SDS011;10398;52.490;13.434;2023-08-12T08:13:18;4.72;;;2.42;;
20478;SDS011;10398;52.490;13.434;2023-08-12T08:15:45;4.38;;;2.65;;
20478;SDS011;10398;52.490;13.434;2023-08-12T08:18:11;6.65;;;2.88;;
20478;SDS011;10398;52.490;13.434;2023-08-12T08:20:36;4.32;;;2.40;;
20478;SDS011;10398;52.490;13.434;2023-08-12T08:23:02;3.90;;;2.38;;
20478;SDS011;10398;52.490;13.434;2023-08-12T08:25:28;4.55;;;2.60;;
20478;SDS011;10398;52.490;13.434;2023-08-12T08:27:53;5.68;;;2.72;;
20478;SDS011;10398;52.490;13.434;2023-08-12T08:30:19;3.67;;;2.60;;
20478;SDS011;10398;52.490;13.434;2023-08-12T08:32:44;3.22;;;2.35;;
20478;SDS011;10398;52.490;13.434;2023-08-12T08:35:11;6.03;;;2.72;;
20478;SDS011;10398;52.490;13.434;2023-08-12T08:37:37;3.35;;;2.35;;
20478;SDS011;10398;52.490;13.434;2023-08-12T08:40:03;7.85;;;2.58;;
20478;SDS011;10398;52.490;13.434;2023-08-12T08:42:29;3.97;;;2.40;;
20478;SDS011;10398;52.490;13.434;2023-08-12T08:44:56;4.18;;;2.30;;
20478;SDS011;10398;52.490;13.434;2023-08-12T08:47:26;5.10;;;2.60;;
20478;SDS011;10398;52.490;13.434;2023-08-12T08:49:53;6.10;;;2.88;;
20478;SDS011;10398;52.490;13.434;2023-08-12T08:52:21;3.00;;;2.33;;
20478;SDS011;10398;52.490;13.434;2023-08-12T08:54:48;7.75;;;2.78;;
20478;SDS011;10398;52.490;13.434;2023-08-12T08:57:15;3.83;;;2.60;;
20478;SDS011;10398;52.490;13.434;2023-08-12T08:59:41;3.25;;;2.22;;
20478;SDS011;10398;52.490;13.434;2023-08-12T09:02:09;3.65;;;2.47;;
20478;SDS011;10398;52.490;13.434;2023-08-12T09:04:40;5.40;;;2.60;;
20478;SDS011;10398;52.490;13.434;2023-08-12T09:07:07;7.63;;;2.47;;
20478;SDS011;10398;52.490;13.434;2023-08-12T09:09:33;4.18;;;2.50;;
20478;SDS011;10398;52.490;13.434;2023-08-12T09:12:00;5.57;;;2.25;;
20478;SDS011;10398;52.490;13.434;2023-08-12T09:14:27;7.80;;;2.85;;
20478;SDS011;10398;52.490;13.434;2023-08-12T09:16:54;5.15;;;2.72;;
20478;SDS011;10398;52.490;13.434;2023-08-12T09:19:20;8.57;;;3.17;;
20478;SDS011;10398;52.490;13.434;2023-08-12T09:21:51;5.63;;;2.65;;
20478;SDS011;10398;52.490;13.434;2023-08-12T09:24:23;7.70;;;3.00;;
20478;SDS011;10398;52.490;13.434;2023-08-12T09:26:53;7.07;;;2.83;;
20478;SDS011;10398;52.490;13.434;2023-08-12T09:29:38;10.77;;;2.60;;
20478;SDS011;10398;52.490;13.434;2023-08-12T09:32:17;7.20;;;2.80;;
20478;SDS011;10398;52.490;13.434;2023-08-12T09:37:13;3.88;;;2.75;;
20478;SDS011;10398;52.490;13.434;2023-08-12T09:39:40;5.25;;;3.20;;
20478;SDS011;10398;52.490;13.434;2023-08-12T09:42:06;4.70;;;3.05;;
20478;SDS011;10398;52.490;13.434;2023-08-12T09:44:35;3.70;;;2.70;;
20478;SDS011;10398;52.490;13.434;2023-08-12T09:47:01;5.43;;;2.70;;
20478;SDS011;10398;52.490;13.434;2023-08-12T09:49:28;4.40;;;2.50;;
20478;SDS011;10398;52.490;13.434;2023-08-12T09:51:54;5.03;;;2.35;;
20478;SDS011;10398;52.490;13.434;2023-08-12T09:54:21;6.03;;;2.80;;
20478;SDS011;10398;52.490;13.434;2023-08-12T09:56:47;3.53;;;2.70;;
20478;SDS011;10398;52.490;13.434;2023-08-12T09:59:18;7.00;;;2.72;;
20478;SDS011;10398;52.490;13.434;2023-08-12T10:01:48;4.47;;;2.80;;
20478;SDS011;10398;52.490;13.434;2023-08-12T10:04:17;5.43;;;2.65;;
20478;SDS011;10398;52.490;13.434;2023-08-12T10:06:46;5.07;;;3.13;;
20478;SDS011;10398;52.490;13.434;2023-08-12T10:09:12;5.15;;;2.40;;
20478;SDS011;10398;52.490;13.434;2023-08-12T10:11:40;7.30;;;3.40;;
20478;SDS011;10398;52.490;13.434;2023-08-12T10:14:09;4.88;;;3.00;;
20478;SDS011;10398;52.490;13.434;2023-08-12T10:16:35;4.05;;;2.65;;
20478;SDS011;10398;52.490;13.434;2023-08-12T10:19:02;5.93;;;3.05;;
20478;SDS011;10398;52.490;13.434;2023-08-12T10:21:30;6.50;;;3.08;;
20478;SDS011;10398;52.490;13.434;2023-08-12T10:24:00;6.28;;;2.70;;
20478;SDS011;10398;52.490;13.434;2023-08-12T10:26:28;4.05;;;2.85;;
20478;SDS011;10398;52.490;13.434;2023-08-12T10:28:55;7.05;;;3.15;;
20478;SDS011;10398;52.490;13.434;2023-08-12T10:31:21;6.05;;;2.90;;
20478;SDS011;10398;52.490;13.434;2023-08-12T10:33:47;6.40;;;3.72;;
20478;SDS011;10398;52.490;13.434;2023-08-12T10:36:15;6.00;;;3.25;;
20478;SDS011;10398;52.490;13.434;2023-08-12T10:38:44;4.85;;;3.47;;
20478;SDS011;10398;52.490;13.434;2023-08-12T10:43:56;6.22;;;3.25;;
20478;SDS011;10398;52.490;13.434;2023-08-12T10:48:59;7.28;;;3.42;;
20478;SDS011;10398;52.490;13.434;2023-08-12T11:02:26;5.93;;;2.88;;
20478;SDS011;10398;52.490;13.434;2023-08-12T11:05:02;5.22;;;3.28;;
20478;SDS011;10398;52.490;13.434;2023-08-12T11:07:40;8.60;;;3.47;;
20478;SDS011;10398;52.490;13.434;2023-08-12T11:10:23;5.55;;;3.30;;
20478;SDS011;10398;52.490;13.434;2023-08-12T11:18:13;5.72;;;3.30;;
20478;SDS011;10398;52.490;13.434;2023-08-12T11:20:41;6.72;;;3.28;;
20478;SDS011;10398;52.490;13.434;2023-08-12T11:23:08;5.28;;;3.25;;
20478;SDS011;10398;52.490;13.434;2023-08-12T11:25:35;6.10;;;2.75;;
20478;SDS011;10398;52.490;13.434;2023-08-12T11:28:03;5.68;;;3.38;;
20478;SDS011;10398;52.490;13.434;2023-08-12T11:30:29;5.32;;;3.10;;
20478;SDS011;10398;52.490;13.434;2023-08-12T11:32:55;6.40;;;3.03;;
20478;SDS011;10398;52.490;13.434;2023-08-12T11:35:22;7.32;;;3.00;;
20478;SDS011;10398;52.490;13.434;2023-08-12T11:37:53;3.92;;;2.40;;
20478;SDS011;10398;52.490;13.434;2023-08-12T11:40:21;4.53;;;2.63;;
20478;SDS011;10398;52.490;13.434;2023-08-12T11:42:47;5.03;;;3.08;;
20478;SDS011;10398;52.490;13.434;2023-08-12T11:45:16;4.55;;;2.55;;
20478;SDS011;10398;52.490;13.434;2023-08-12T11:47:45;4.35;;;2.75;;
20478;SDS011;10398;52.490;13.434;2023-08-12T11:50:18;3.38;;;2.30;;
20478;SDS011;10398;52.490;13.434;2023-08-12T11:52:48;5.07;;;2.95;;
20478;SDS011;10398;52.490;13.434;2023-08-12T11:55:15;3.95;;;2.50;;
20478;SDS011;10398;52.490;13.434;2023-08-12T11:57:41;4.13;;;3.00;;
20478;SDS011;10398;52.490;13.434;2023-08-12T12:00:09;4.68;;;2.80;;
20478;SDS011;10398;52.490;13.434;2023-08-12T12:02:52;4.40;;;2.95;;
20478;SDS011;10398;52.490;13.434;2023-08-12T12:05:22;5.57;;;3.20;;
20478;SDS011;10398;52.490;13.434;2023-08-12T12:07:49;7.20;;;3.33;;
20478;SDS011;10398;52.490;13.434;2023-08-12T12:10:25;8.88;;;3.40;;
20478;SDS011;10398;52.490;13.434;2023-08-12T12:12:54;6.40;;;3.47;;
20478;SDS011;10398;52.490;13.434;2023-08-12T12:15:20;4.78;;;2.95;;
20478;SDS011;10398;52.490;13.434;2023-08-12T12:17:46;9.13;;;2.75;;
20478;SDS011;10398;52.490;13.434;2023-08-12T12:20:12;7.10;;;3.95;;
20478;SDS011;10398;52.490;13.434;2023-08-12T12:22:40;6.57;;;4.00;;
20478;SDS011;10398;52.490;13.434;2023-08-12T12:25:08;13.73;;;4.53;;
20478;SDS011;10398;52.490;13.434;2023-08-12T12:27:38;8.30;;;4.13;;
20478;SDS011;10398;52.490;13.434;2023-08-12T12:30:07;7.97;;;3.45;;
20478;SDS011;10398;52.490;13.434;2023-08-12T12:32:34;6.90;;;3.85;;
20478;SDS011;10398;52.490;13.434;2023-08-12T12:35:00;12.35;;;4.50;;
20478;SDS011;10398;52.490;13.434;2023-08-12T12:37:26;4.82;;;3.00;;
20478;SDS011;10398;52.490;13.434;2023-08-12T12:39:52;5.10;;;3.10;;
20478;SDS011;10398;52.490;13.434;2023-08-12T12:42:18;4.32;;;2.53;;
20478;SDS011;10398;52.490;13.434;2023-08-12T12:44:43;5.80;;;2.65;;
20478;SDS011;10398;52.490;13.434;2023-08-12T12:47:09;4.10;;;2.60;;
20478;SDS011;10398;52.490;13.434;2023-08-12T12:49:37;6.18;;;2.88;;
20478;SDS011;10398;52.490;13.434;2023-08-12T12:52:04;3.85;;;2.83;;
20478;SDS011;10398;52.490;13.434;2023-08-12T12:54:29;4.32;;;2.33;;
20478;SDS011;10398;52.490;13.434;2023-08-12T12:56:56;5.57;;;2.53;;
20478;SDS011;10398;52.490;13.434;2023-08-12T12:59:21;4.18;;;2.80;;
20478;SDS011;10398;52.490;13.434;2023-08-12T13:01:48;5.75;;;3.20;;
20478;SDS011;10398;52.490;13.434;2023-08-12T13:04:14;5.20;;;3.08;;
20478;SDS011;10398;52.490;13.434;2023-08-12T13:06:39;7.55;;;3.10;;
20478;SDS011;10398;52.490;13.434;2023-08-12T13:09:05;3.85;;;2.60;;
20478;SDS011;10398;52.490;13.434;2023-08-12T13:11:32;5.72;;;2.95;;
20478;SDS011;10398;52.490;13.434;2023-08-12T13:13:59;8.02;;;3.00;;
20478;SDS011;10398;52.490;13.434;2023-08-12T13:16:25;4.53;;;2.75;;
20478;SDS011;10398;52.490;13.434;2023-08-12T13:18:51;5.85;;;2.80;;
20478;SDS011;10398;52.490;13.434;2023-08-12T13:21:17;9.20;;;2.75;;
20478;SDS011;10398;52.490;13.434;2023-08-12T13:23:42;3.58;;;2.55;;
20478;SDS011;10398;52.490;13.434;2023-08-12T13:26:08;4.63;;;2.60;;
20478;SDS011;10398;52.490;13.434;2023-08-12T13:28:34;8.45;;;2.83;;
20478;SDS011;10398;52.490;13.434;2023-08-12T13:30:59;3.22;;;2.50;;
20478;SDS011;10398;52.490;13.434;2023-08-12T13:33:25;4.30;;;2.63;;
20478;SDS011;10398;52.490;13.434;2023-08-12T13:35:51;6.03;;;2.50;;
20478;SDS011;10398;52.490;13.434;2023-08-12T13:38:16;5.82;;;2.95;;
20478;SDS011;10398;52.490;13.434;2023-08-12T13:40:42;5.72;;;2.75;;
20478;SDS011;10398;52.490;13.434;2023-08-12T13:43:08;4.38;;;2.55;;
20478;SDS011;10398;52.490;13.434;2023-08-12T13:45:33;4.07;;;2.58;;
20478;SDS011;10398;52.490;13.434;2023-08-12T13:47:59;6.70;;;2.55;;
20478;SDS011;10398;52.490;13.434;2023-08-12T13:50:25;3.33;;;2.47;;
20478;SDS011;10398;52.490;13.434;2023-08-12T13:52:50;5.78;;;2.30;;
20478;SDS011;10398;52.490;13.434;2023-08-12T13:55:16;5.25;;;2.90;;
20478;SDS011;10398;52.490;13.434;2023-08-12T13:57:42;11.20;;;6.13;;
20478;SDS011;10398;52.490;13.434;2023-08-12T14:00:07;6.72;;;3.42;;
20478;SDS011;10398;52.490;13.434;2023-08-12T14:02:38;5.72;;;2.60;;
20478;SDS011;10398;52.490;13.434;2023-08-12T14:05:05;3.88;;;2.50;;
20478;SDS011;10398;52.490;13.434;2023-08-12T14:07:31;4.60;;;3.05;;
20478;SDS011;10398;52.490;13.434;2023-08-12T14:09:58;5.28;;;2.55;;
20478;SDS011;10398;52.490;13.434;2023-08-12T14:12:24;3.30;;;2.35;;
20478;SDS011;10398;52.490;13.434;2023-08-12T14:14:49;5.32;;;2.33;;
20478;SDS011;10398;52.490;13.434;2023-08-12T14:17:15;4.53;;;2.30;;
20478;SDS011;10398;52.490;13.434;2023-08-12T14:19:43;5.57;;;2.80;;
20478;SDS011;10398;52.490;13.434;2023-08-12T14:22:12;3.63;;;2.40;;
20478;SDS011;10398;52.490;13.434;2023-08-12T14:24:38;3.83;;;2.33;;
20478;SDS011;10398;52.490;13.434;2023-08-12T14:27:04;7.13;;;3.15;;
20478;SDS011;10398;52.490;13.434;2023-08-12T14:29:30;4.57;;;2.80;;
20478;SDS011;10398;52.490;13.434;2023-08-12T14:31:56;4.55;;;2.95;;
20478;SDS011;10398;52.490;13.434;2023-08-12T14:34:23;4.03;;;2.22;;
20478;SDS011;10398;52.490;13.434;2023-08-12T14:36:49;3.55;;;1.98;;
20478;SDS011;10398;52.490;13.434;2023-08-12T14:39:15;4.07;;;2.17;;
20478;SDS011;10398;52.490;13.434;2023-08-12T14:41:40;4.22;;;2.10;;
20478;SDS011;10398;52.490;13.434;2023-08-12T14:44:06;6.72;;;2.92;;
20478;SDS011;10398;52.490;13.434;2023-08-12T14:46:32;3.75;;;2.42;;
20478;SDS011;10398;52.490;13.434;2023-08-12T14:48:57;4.13;;;2.10;;
20478;SDS011;10398;52.490;13.434;2023-08-12T14:51:23;3.15;;;2.25;;
20478;SDS011;10398;52.490;13.434;2023-08-12T14:53:49;4.07;;;2.20;;
20478;SDS011;10398;52.490;13.434;2023-08-12T14:56:15;5.53;;;2.50;;